• Join FlightAware (Why Join?)
  • Login
  • US Flag 
02:03PM EDT


 

Airport Tracker/Info


-or-


 

Live Flight TrackerFlight Track Log ✈ CTL13 ✈ 24-Apr-2013 ✈ KBKL - KEYE

Flight Track Log - Related Links

Times and Time Zones

All times are in EDT time to prevent confusion due to time zone crossing. See the CTL13 flight status page for this flight to view local times or setup timezone preferences in your user account.

Time Position Orientation Groundspeed Altitude Reporting Facility
EDT Latitude Longitude Course Direction KTS MPH feet Rate Location/Type
06:27PM 41.5106 -81.6950 320° Northwest 119 137 900  Level Cleveland Center
06:29PM 41.5456 -81.7344 320° Northwest 139 160 2,000 660 Climbing Cleveland Center
06:30PM 41.5764 -81.7711 318° Northwest 158 182 2,500 1,080 Climbing Cleveland Center
06:31PM 41.5864 -81.8103 289° West 87 100 4,200 1,440 Climbing Cleveland Center
06:32PM 41.6028 -81.8550 296° West 107 123 5,800 840 Climbing Cleveland Center
06:33PM 41.6106 -81.8967 284° West 141 162 6,100 120 Climbing Cleveland Center
06:34PM 41.6058 -81.9439 262° West 163 188 6,100 600 Level Cleveland Center
06:35PM 41.5886 -81.9964 246° West 124 143 7,300 900 Climbing Cleveland Center
06:36PM 41.5714 -82.0292 235° Southwest 105 121 8,100 360 Climbing Cleveland Center
06:37PM 41.5564 -82.0678 243° Southwest 147 169 8,100  Level Cleveland Center
06:38PM 41.5328 -82.1197 239° Southwest 142 163 8,100 60 Level Cleveland Center
06:40PM 41.5057 -82.1910 243° Southwest  Level Estimated
06:47PM 41.3815 -82.5155 243° Southwest  Level Estimated
06:47PM 41.3753 -82.4786 243° Southwest 157 181 8,800  Level Cleveland Center
06:48PM 41.3637 -82.5618 243° Southwest  Level Estimated
06:48PM 41.3622 -82.5086 240° Southwest 115 132 9,500  Level Cleveland Center
06:49PM 41.3458 -82.6080 243° Southwest  Level Estimated
06:49PM 41.3492 -82.5414 242° Southwest 101 116 10,000  Level Cleveland Center
06:50PM 41.3280 -82.6543 243° Southwest  Level Estimated
06:50PM 41.3317 -82.5769 237° Southwest 101 116 10,000  Level Cleveland Center
06:51PM 41.3112 -82.6976 243° Southwest  Level Estimated
06:51PM 41.3144 -82.6178 241° Southwest 106 122 10,100  Level Cleveland Center
06:52PM 41.2992 -82.6533 240° Southwest 111 128 10,000 -60 Descending Cleveland Center
06:53PM 41.2839 -82.6858 238° Southwest 111 128 10,000  Level Cleveland Center
06:54PM 41.2686 -82.7242 242° Southwest 111 128 10,000  Level Cleveland Center
06:55PM 41.2514 -82.7594 237° Southwest 116 133 10,000  Level Cleveland Center
06:56PM 41.2361 -82.7975 242° Southwest 116 133 10,000  Level Cleveland Center
06:57PM 41.2167 -82.8328 234° Southwest 116 133 10,000  Level Cleveland Center
06:58PM 41.2033 -82.8711 245° Southwest 116 133 10,000  Level Cleveland Center
06:59PM 41.1858 -82.9092 239° Southwest 116 133 10,000  Level Cleveland Center
07:00PM 41.1683 -82.9469 238° Southwest 122 140 10,000  Level Cleveland Center
07:01PM 41.1531 -82.9797 238° Southwest 122 140 10,000 -240 Level Cleveland Center
07:02PM 41.1356 -83.0203 240° Southwest 122 140 9,600 -540 Descending Cleveland Center
07:03PM 41.1178 -83.0692 244° Southwest 140 161 9,000 -720 Descending Cleveland Center
07:04PM 41.0958 -83.1181 239° Southwest 145 167 8,200 -540 Descending Cleveland Center
07:05PM 41.0675 -83.1719 235° Southwest 159 183 8,000 -120 Descending Cleveland Center
07:06PM 41.0456 -83.2208 239° Southwest 164 189 8,000  Level Cleveland Center
07:07PM 41.0256 -83.2722 243° Southwest 164 189 8,100  Climbing Cleveland Center
07:08PM 41.0036 -83.3208 239° Southwest 159 183 8,100 -60 Level Cleveland Center
07:10PM 40.9622 -83.4094 238° Southwest 151 174 8,000  Descending Indianapolis Center
07:11PM 40.9408 -83.4589 240° Southwest 153 176 8,100  Climbing Indianapolis Center
07:12PM 40.9186 -83.5100 240° Southwest 149 171 8,100 -60 Level Indianapolis Center
07:13PM 40.8942 -83.5564 235° Southwest 152 175 8,000  Descending Indianapolis Center
07:14PM 40.8753 -83.6053 243° Southwest 150 173 8,100  Climbing Indianapolis Center
07:15PM 40.8542 -83.6519 239° Southwest 148 170 8,000 -60 Descending Indianapolis Center
07:16PM 40.8303 -83.7100 241° Southwest 152 175 8,000  Level Indianapolis Center
07:17PM 40.8067 -83.7561 236° Southwest 151 174 8,000  Level Indianapolis Center
07:18PM 40.7847 -83.8042 239° Southwest 151 174 8,000  Level Indianapolis Center
07:19PM 40.7614 -83.8511 237° Southwest 152 175 8,000  Level Indianapolis Center
07:20PM 40.7419 -83.9000 242° Southwest 149 171 8,000  Level Indianapolis Center
07:21PM 40.7181 -83.9469 236° Southwest 152 175 8,000  Level Indianapolis Center
07:22PM 40.6947 -83.9933 236° Southwest 151 174 8,000  Level Indianapolis Center
07:23PM 40.6789 -84.0439 248° West 149 171 8,000  Level Indianapolis Center
07:24PM 40.6603 -84.0939 244° Southwest 145 167 8,000  Level Indianapolis Center
07:25PM 40.6439 -84.1442 247° West 149 171 8,000  Level Indianapolis Center
07:26PM 40.6256 -84.1911 243° Southwest 148 170 8,000  Level Indianapolis Center
07:27PM 40.6097 -84.2358 245° Southwest 146 168 8,000 -120 Level Indianapolis Center
07:28PM 40.6058 -84.2500 250° West 147 169 7,900  Descending Indianapolis Center
07:28PM 40.5931 -84.2858 245° Southwest 148 170 8,000  Climbing Indianapolis Center
07:29PM 40.5883 -84.2983 244° Southwest 147 169 7,900 -120 Descending Indianapolis Center
07:30PM 40.5694 -84.3497 244° Southwest 150 173 7,900 60 Level Indianapolis Center
07:30PM 40.5561 -84.3822 242° Southwest 149 171 8,000  Climbing Indianapolis Center
07:31PM 40.5517 -84.3983 250° West 149 171 7,900  Descending Indianapolis Center
07:31PM 40.5394 -84.4322 245° Southwest 150 173 8,000 60 Climbing Indianapolis Center
07:32PM 40.5344 -84.4486 248° West 149 171 8,000  Level Indianapolis Center
07:32PM 40.5231 -84.4822 246° West 148 170 8,000 -120 Level Indianapolis Center
07:33PM 40.5169 -84.4983 243° Southwest 149 171 7,900  Descending Indianapolis Center
07:33PM 40.5042 -84.5344 245° Southwest 150 173 8,000 60 Climbing Indianapolis Center
07:34PM 40.4983 -84.5475 240° Southwest 150 173 8,000  Level Indianapolis Center
07:34PM 40.4853 -84.5842 245° Southwest 148 170 8,000  Level Indianapolis Center
07:35PM 40.4742 -84.6025 231° Southwest 149 171 8,000  Level Indianapolis Center
07:35PM 40.4631 -84.6250 237° Southwest 153 176 8,000  Level Indianapolis Center
07:36PM 40.4514 -84.6494 238° Southwest 151 174 8,000  Level Indianapolis Center
07:36PM 40.4361 -84.6733 230° Southwest 153 176 8,000  Level Indianapolis Center
07:37PM 40.4228 -84.6928 228° Southwest 153 176 8,000  Level Indianapolis Center
07:37PM 40.4081 -84.7103 222° Southwest 155 178 8,000 -120 Level Indianapolis Center
07:38PM 40.3936 -84.7339 231° Southwest 153 176 7,900  Descending Indianapolis Center
07:38PM 40.3792 -84.7531 225° Southwest 152 175 8,000 60 Climbing Indianapolis Center
07:39PM 40.3625 -84.7742 224° Southwest 155 178 8,000  Level Indianapolis Center
07:39PM 40.3508 -84.7928 231° Southwest 154 177 8,000  Level Indianapolis Center
07:40PM 40.3333 -84.8144 223° Southwest 153 176 8,000  Level Indianapolis Center
07:40PM 40.3203 -84.8322 226° Southwest 155 178 8,000  Level Indianapolis Center
07:41PM 40.3028 -84.8558 226° Southwest 154 177 8,000  Level Indianapolis Center
07:41PM 40.2897 -84.8717 223° Southwest 155 178 8,000  Level Indianapolis Center
07:42PM 40.2725 -84.8972 229° Southwest 156 180 8,000  Level Indianapolis Center
07:42PM 40.2583 -84.9192 230° Southwest 158 182 8,000  Level Indianapolis Center
07:43PM 40.2392 -84.9414 222° Southwest 156 180 8,000  Level Indianapolis Center
07:43PM 40.2278 -84.9586 229° Southwest 156 180 8,000  Level Indianapolis Center
07:44PM 40.2097 -84.9819 225° Southwest 155 178 8,000 60 Level Indianapolis Center
07:44PM 40.1972 -84.9978 224° Southwest 155 178 8,100  Climbing Indianapolis Center
07:45PM 40.1786 -85.0233 226° Southwest 157 181 8,000 -120 Descending Indianapolis Center
07:45PM 40.1683 -85.0403 232° Southwest 158 182 8,000  Level Indianapolis Center
07:46PM 40.1486 -85.0661 225° Southwest 158 182 8,000  Level Indianapolis Center
07:46PM 40.1375 -85.0822 228° Southwest 159 183 8,000  Level Indianapolis Center
07:47PM 40.1164 -85.1064 221° Southwest 158 182 8,000 60 Level Indianapolis Center
07:47PM 40.1067 -85.1242 234° Southwest 159 183 8,100  Climbing Indianapolis Center
07:48PM 40.0967 -85.1644 252° West 152 175 8,000 -60 Descending Indianapolis Center
07:49PM 40.0856 -85.2169 255° West 148 170 8,000  Level Indianapolis Center
07:50PM 40.0733 -85.2692 253° West 149 171 8,000 -180 Level Indianapolis Center
07:51PM 40.0611 -85.3208 253° West 148 170 7,700 -540 Descending Indianapolis Center
07:52PM 40.0464 -85.3792 252° West 164 189 6,900 -900 Descending Indianapolis Center
07:53PM 40.0322 -85.4394 253° West 170 196 5,900 -960 Descending Indianapolis Center
07:54PM 40.0178 -85.4994 253° West 172 198 5,000 -480 Descending Indianapolis Center
07:55PM 40.0056 -85.5511 253° West 161 185 5,000  Level Indianapolis Center
07:56PM 39.9917 -85.6092 253° West 148 170 5,000  Level Indianapolis Center
07:57PM 39.9800 -85.6594 253° West 145 167 5,000  Level Indianapolis Center
07:58PM 39.9694 -85.7103 255° West 145 167 5,000 -300 Level Indianapolis Center
07:59PM 39.9569 -85.7639 253° West 148 170 4,500 -660 Descending Indianapolis Center
08:00PM 39.9433 -85.8222 253° West 158 182 3,700 -780 Descending Indianapolis Center
08:01PM 39.9289 -85.8794 252° West 164 189 3,000 -360 Descending Indianapolis Center
08:02PM 39.9211 -85.9339 259° West 159 183 3,000  Level Indianapolis Center
08:03PM 39.9208 -85.9861 270° West 149 171 3,000  Level Indianapolis Center
08:05PM 39.9183 -86.0472 267° West 146 168 3,000 -300 Level Indianapolis Center
08:06PM 39.9144 -86.0969 264° West 141 162 2,500 -300 Descending Indianapolis Center
08:07PM 39.8986 -86.1428 246° West 138 159 2,400 -120 Descending Indianapolis Center
08:08PM 39.8831 -86.1844 244° Southwest 137 158 2,300 -120 Descending Indianapolis Center
08:10PM 39.8452 -86.2676 239° Southwest  Level FlightAware Approximate
08:17PM 39.8167 -86.2833 90° East  Level FlightAware Approximate
08:18PM 39.8308 -86.2944 90° East  Level Estimated